createdAt,value
2016-08-15T00:00:06.608Z,100
2016-08-15T00:00:20.733Z,100
2016-08-15T00:00:32.585Z,100
2016-08-15T00:00:47.435Z,100
2016-08-15T00:01:00.057Z,100
2016-08-15T00:01:14.172Z,100
2016-08-15T00:01:27.509Z,100
2016-08-15T00:01:42.383Z,100
2016-08-15T00:01:55.757Z,100
2016-08-15T00:02:09.889Z,100
2016-08-15T00:02:23.242Z,100
2016-08-15T00:02:38.864Z,100
2016-08-15T00:02:53.727Z,100
2016-08-15T00:03:07.835Z,100
2016-08-15T00:03:21.940Z,100
2016-08-15T00:03:34.608Z,100
2016-08-15T00:03:48.718Z,100
2016-08-15T00:04:02.816Z,100
2016-08-15T00:04:16.188Z,100
2016-08-15T00:04:31.802Z,100
2016-08-15T00:04:45.934Z,100
2016-08-15T00:04:59.383Z,100
2016-08-15T00:05:13.489Z,100
2016-08-15T00:05:28.355Z,100
2016-08-15T00:05:43.224Z,100
2016-08-15T00:05:55.865Z,100
2016-08-15T00:06:06.996Z,100
2016-08-15T00:06:21.108Z,100
2016-08-15T00:06:32.965Z,100
2016-08-15T00:06:45.575Z,100
2016-08-15T00:06:58.957Z,100
2016-08-15T00:07:12.384Z,100
2016-08-15T00:07:27.242Z,100
2016-08-15T00:07:40.613Z,100
2016-08-15T00:07:53.980Z,100
2016-08-15T00:08:08.850Z,100
2016-08-15T00:08:20.738Z,100
2016-08-15T00:08:33.359Z,100
2016-08-15T00:08:46.756Z,100
2016-08-15T00:09:00.874Z,100
2016-08-15T00:09:15.734Z,100
2016-08-15T00:09:29.851Z,100
2016-08-15T00:09:45.466Z,100
2016-08-15T00:09:57.352Z,100
2016-08-15T00:10:10.748Z,100
2016-08-15T00:10:24.861Z,100
2016-08-15T00:10:37.488Z,100
2016-08-15T00:10:51.608Z,100
2016-08-15T00:11:04.964Z,100
2016-08-15T00:11:15.330Z,100
2016-08-15T00:11:28.700Z,100
2016-08-15T00:11:40.595Z,100
2016-08-15T00:11:53.968Z,100
2016-08-15T00:12:08.122Z,100
2016-08-15T00:12:21.483Z,100
2016-08-15T00:12:35.598Z,100
2016-08-15T00:12:47.481Z,100
2016-08-15T00:13:00.902Z,100
2016-08-15T00:13:12.775Z,100
2016-08-15T00:13:25.391Z,100
2016-08-15T00:13:39.516Z,100
2016-08-15T00:13:52.151Z,100
2016-08-15T00:14:05.538Z,100
2016-08-15T00:14:19.643Z,100
2016-08-15T00:14:33.008Z,100
2016-08-15T00:14:47.128Z,100
2016-08-15T00:14:59.012Z,100
2016-08-15T00:15:12.406Z,100
2016-08-15T00:15:26.526Z,100
2016-08-15T00:15:40.633Z,100
2016-08-15T00:15:53.994Z,100
2016-08-15T00:16:08.123Z,100
2016-08-15T00:16:20.006Z,100
2016-08-15T00:16:34.126Z,100
2016-08-15T00:16:48.256Z,100
2016-08-15T00:17:01.618Z,100
2016-08-15T00:17:15.791Z,100
2016-08-15T00:17:29.180Z,100
2016-08-15T00:17:43.300Z,100
2016-08-15T00:17:58.168Z,100
2016-08-15T00:18:11.537Z,100
2016-08-15T00:18:24.927Z,100
2016-08-15T00:18:36.789Z,100
2016-08-15T00:18:48.685Z,100
2016-08-15T00:19:02.801Z,100
2016-08-15T00:19:15.411Z,100
2016-08-15T00:19:28.832Z,100
2016-08-15T00:19:42.184Z,100
2016-08-15T00:19:57.155Z,100
2016-08-15T00:20:10.519Z,100
2016-08-15T00:20:22.404Z,100
2016-08-15T00:20:37.276Z,100
2016-08-15T00:20:51.420Z,100
2016-08-15T00:21:05.525Z,100
2016-08-15T00:21:17.425Z,100
2016-08-15T00:21:32.294Z,100
2016-08-15T00:21:44.923Z,100
2016-08-15T00:21:59.035Z,100
2016-08-15T00:22:11.656Z,100
2016-08-15T00:22:26.532Z,100
2016-08-15T00:22:39.200Z,100
2016-08-15T00:22:50.330Z,100
2016-08-15T00:23:04.456Z,100
2016-08-15T00:23:18.592Z,100
2016-08-15T00:23:31.976Z,100
2016-08-15T00:23:44.637Z,100
2016-08-15T00:23:58.755Z,100
2016-08-15T00:24:12.881Z,100
2016-08-15T00:24:27.016Z,100
2016-08-15T00:24:41.874Z,100
2016-08-15T00:24:56.003Z,100
2016-08-15T00:25:11.619Z,100
2016-08-15T00:25:27.235Z,100
2016-08-15T00:25:39.118Z,100
2016-08-15T00:25:53.244Z,100
2016-08-15T00:26:05.146Z,100
2016-08-15T00:26:17.747Z,100
2016-08-15T00:26:31.842Z,100
2016-08-15T00:26:46.726Z,100
2016-08-15T00:26:59.340Z,100
2016-08-15T00:27:12.715Z,100
2016-08-15T00:27:26.842Z,100
2016-08-15T00:27:38.720Z,100
2016-08-15T00:27:53.594Z,100
2016-08-15T00:28:05.488Z,100
2016-08-15T00:28:18.877Z,100
2016-08-15T00:28:32.234Z,100
2016-08-15T00:28:47.101Z,100
2016-08-15T00:29:00.458Z,100
2016-08-15T00:29:15.317Z,100
2016-08-15T00:29:27.173Z,100
2016-08-15T00:29:42.053Z,100
2016-08-15T00:29:55.530Z,100
2016-08-15T00:30:11.151Z,100
2016-08-15T00:30:25.268Z,100
2016-08-15T00:30:39.392Z,100
2016-08-15T00:30:52.020Z,100
2016-08-15T00:31:06.152Z,100
2016-08-15T00:31:20.279Z,100
2016-08-15T00:31:33.645Z,100
2016-08-15T00:31:47.028Z,100
2016-08-15T00:31:59.735Z,100
2016-08-15T00:32:13.874Z,100
2016-08-15T00:32:29.484Z,100
2016-08-15T00:32:44.354Z,100
2016-08-15T00:32:57.752Z,100
2016-08-15T00:33:11.856Z,100
2016-08-15T00:33:25.981Z,100
2016-08-15T00:33:40.105Z,100
2016-08-15T00:33:52.033Z,100
2016-08-15T00:34:06.157Z,100
2016-08-15T00:34:21.024Z,100
2016-08-15T00:34:35.900Z,100
2016-08-15T00:34:50.776Z,100
2016-08-15T00:35:04.162Z,100
2016-08-15T00:35:18.271Z,100
2016-08-15T00:35:30.881Z,100
2016-08-15T00:35:43.492Z,100
2016-08-15T00:35:53.867Z,100
2016-08-15T00:36:05.747Z,100
2016-08-15T00:36:21.359Z,100
2016-08-15T00:36:33.971Z,100
2016-08-15T00:36:47.362Z,100
2016-08-15T00:37:00.759Z,100
2016-08-15T00:37:15.627Z,100
2016-08-15T00:37:27.484Z,100
2016-08-15T00:37:43.103Z,100
2016-08-15T00:37:57.219Z,100
2016-08-15T00:38:09.879Z,100
2016-08-15T00:38:24.003Z,100
2016-08-15T00:38:38.120Z,100
2016-08-15T00:38:48.501Z,100
2016-08-15T00:39:01.134Z,100
2016-08-15T00:39:15.994Z,100
2016-08-15T00:39:30.110Z,100
2016-08-15T00:39:45.731Z,100
2016-08-15T00:39:58.358Z,100
2016-08-15T00:40:13.979Z,100
2016-08-15T00:40:28.873Z,100
2016-08-15T00:40:43.742Z,100
2016-08-15T00:40:55.622Z,100
2016-08-15T00:41:08.994Z,100
2016-08-15T00:41:21.600Z,100
2016-08-15T00:41:36.486Z,100
2016-08-15T00:41:49.093Z,100
2016-08-15T00:42:03.200Z,100
2016-08-15T00:42:16.573Z,100
2016-08-15T00:42:31.440Z,100
2016-08-15T00:42:42.567Z,100
2016-08-15T00:42:56.697Z,100
2016-08-15T00:43:10.048Z,100
2016-08-15T00:43:24.168Z,100
2016-08-15T00:43:38.308Z,100
2016-08-15T00:43:52.420Z,100
2016-08-15T00:44:07.297Z,100
2016-08-15T00:44:22.172Z,100
2016-08-15T00:44:34.794Z,100
2016-08-15T00:44:49.690Z,100
2016-08-15T00:45:03.801Z,100
2016-08-15T00:45:17.177Z,100
2016-08-15T00:45:29.774Z,100
2016-08-15T00:45:42.386Z,100
2016-08-15T00:45:57.242Z,100
2016-08-15T00:46:12.106Z,100
2016-08-15T00:46:26.977Z,100
2016-08-15T00:46:41.833Z,100
2016-08-15T00:46:55.205Z,100
2016-08-15T00:47:10.129Z,100
2016-08-15T00:47:24.238Z,100
2016-08-15T00:47:38.356Z,100
2016-08-15T00:47:49.505Z,100
2016-08-15T00:48:03.621Z,100
2016-08-15T00:48:18.478Z,100
2016-08-15T00:48:31.863Z,100
2016-08-15T00:48:44.474Z,100
2016-08-15T00:48:57.117Z,100
2016-08-15T00:49:09.737Z,100
2016-08-15T00:49:22.354Z,100
2016-08-15T00:49:35.738Z,100
2016-08-15T00:49:50.592Z,100
2016-08-15T00:50:05.462Z,100
2016-08-15T00:50:18.836Z,100
2016-08-15T00:50:31.453Z,100
2016-08-15T00:50:46.324Z,100
2016-08-15T00:50:56.693Z,100
2016-08-15T00:51:10.057Z,100
2016-08-15T00:51:25.694Z,100
2016-08-15T00:51:40.559Z,100
2016-08-15T00:51:54.667Z,100
2016-08-15T00:52:08.772Z,100
2016-08-15T00:52:23.645Z,100
2016-08-15T00:52:38.506Z,100
2016-08-15T00:52:52.624Z,100
2016-08-15T00:53:07.513Z,100
2016-08-15T00:53:20.147Z,100
2016-08-15T00:53:31.284Z,100
2016-08-15T00:53:46.152Z,100
2016-08-15T00:53:57.337Z,100
2016-08-15T00:54:12.205Z,100
2016-08-15T00:54:26.316Z,100
2016-08-15T00:54:41.201Z,100
2016-08-15T00:54:55.317Z,100
2016-08-15T00:55:10.175Z,100
2016-08-15T00:55:22.065Z,100
2016-08-15T00:55:34.705Z,100
2016-08-15T00:55:47.311Z,100
2016-08-15T00:56:02.163Z,100
2016-08-15T00:56:16.295Z,100
2016-08-15T00:56:28.898Z,100
2016-08-15T00:56:41.542Z,100
2016-08-15T00:56:56.501Z,100
2016-08-15T00:57:11.377Z,100
2016-08-15T00:57:26.240Z,100
2016-08-15T00:57:39.619Z,100
2016-08-15T00:57:52.253Z,100
2016-08-15T00:58:05.616Z,100
2016-08-15T00:58:18.256Z,100
2016-08-15T00:58:31.632Z,100
2016-08-15T00:58:45.069Z,100
2016-08-15T00:58:57.754Z,100
2016-08-15T00:59:11.176Z,100
2016-08-15T00:59:23.790Z,100
2016-08-15T00:59:37.156Z,100
2016-08-15T00:59:50.513Z,100
2016-08-15T01:00:00.908Z,100
2016-08-15T01:00:13.527Z,100
2016-08-15T01:00:26.199Z,100
2016-08-15T01:00:38.829Z,100
2016-08-15T01:00:52.197Z,100
2016-08-15T01:01:05.561Z,100
2016-08-15T01:01:18.195Z,100
2016-08-15T01:01:30.073Z,100
2016-08-15T01:01:43.446Z,100
2016-08-15T01:01:56.824Z,100
2016-08-15T01:02:09.468Z,100
2016-08-15T01:02:23.605Z,100
2016-08-15T01:02:36.972Z,100
2016-08-15T01:02:49.581Z,100
2016-08-15T01:03:05.205Z,100
2016-08-15T01:03:17.056Z,100
2016-08-15T01:03:31.174Z,100
2016-08-15T01:03:43.054Z,100
2016-08-15T01:03:57.158Z,100
2016-08-15T01:04:12.020Z,100
2016-08-15T01:04:25.405Z,100
2016-08-15T01:04:38.771Z,100
2016-08-15T01:04:52.128Z,100
2016-08-15T01:05:06.240Z,100
2016-08-15T01:05:21.904Z,100
2016-08-15T01:05:36.768Z,100
2016-08-15T01:05:50.935Z,100
2016-08-15T01:06:02.830Z,100
2016-08-15T01:06:17.699Z,100
2016-08-15T01:06:31.813Z,100
2016-08-15T01:06:45.179Z,100
2016-08-15T01:06:59.342Z,100
2016-08-15T01:07:11.220Z,100
2016-08-15T01:07:23.841Z,100
2016-08-15T01:07:36.446Z,100
2016-08-15T01:07:50.561Z,100
2016-08-15T01:08:03.950Z,100
2016-08-15T01:08:17.354Z,100
2016-08-15T01:08:30.739Z,100
2016-08-15T01:08:44.848Z,100
2016-08-15T01:08:59.734Z,100
2016-08-15T01:09:12.336Z,100
2016-08-15T01:09:27.199Z,100
2016-08-15T01:09:38.340Z,100
2016-08-15T01:09:51.698Z,100
2016-08-15T01:10:04.307Z,100
2016-08-15T01:10:19.179Z,100
2016-08-15T01:10:34.076Z,100
2016-08-15T01:10:48.191Z,100
2016-08-15T01:11:03.052Z,100
2016-08-15T01:11:17.155Z,100
2016-08-15T01:11:31.301Z,100
2016-08-15T01:11:46.183Z,100
2016-08-15T01:12:00.303Z,100
2016-08-15T01:12:14.423Z,100
2016-08-15T01:12:28.518Z,100
2016-08-15T01:12:42.661Z,100
2016-08-15T01:12:57.524Z,100
2016-08-15T01:13:10.134Z,100
2016-08-15T01:13:23.572Z,100
2016-08-15T01:13:36.955Z,100
2016-08-15T01:13:50.321Z,100
2016-08-15T01:14:02.175Z,100
2016-08-15T01:14:15.572Z,100
2016-08-15T01:14:29.687Z,100
2016-08-15T01:14:41.577Z,100
2016-08-15T01:14:55.019Z,100
2016-08-15T01:15:08.388Z,100
2016-08-15T01:15:21.796Z,100
2016-08-15T01:15:36.667Z,100
2016-08-15T01:15:51.555Z,100
2016-08-15T01:16:04.909Z,100
2016-08-15T01:16:18.287Z,100
2016-08-15T01:16:30.168Z,100
2016-08-15T01:16:45.032Z,100
2016-08-15T01:16:58.483Z,100
2016-08-15T01:17:13.356Z,100
2016-08-15T01:17:28.970Z,100
2016-08-15T01:17:42.329Z,100
2016-08-15T01:17:56.452Z,100
2016-08-15T01:18:09.091Z,100
2016-08-15T01:18:22.438Z,100
2016-08-15T01:18:37.329Z,100
2016-08-15T01:18:51.444Z,100
2016-08-15T01:19:05.570Z,100
2016-08-15T01:19:18.936Z,100
2016-08-15T01:19:32.336Z,100
2016-08-15T01:19:47.959Z,100
2016-08-15T01:20:00.592Z,100
2016-08-15T01:20:12.497Z,100
2016-08-15T01:20:27.363Z,100
2016-08-15T01:20:40.724Z,100
2016-08-15T01:20:54.078Z,100
2016-08-15T01:21:06.734Z,100
2016-08-15T01:21:19.375Z,100
2016-08-15T01:21:32.734Z,100
2016-08-15T01:21:45.373Z,100
2016-08-15T01:21:57.977Z,100
2016-08-15T01:22:12.094Z,100
2016-08-15T01:22:26.958Z,100
2016-08-15T01:22:38.837Z,100
2016-08-15T01:22:52.952Z,100
2016-08-15T01:23:04.087Z,100
2016-08-15T01:23:17.461Z,100
2016-08-15T01:23:31.631Z,100
2016-08-15T01:23:45.739Z,100
2016-08-15T01:23:59.861Z,100
2016-08-15T01:24:14.028Z,100
2016-08-15T01:24:28.155Z,100
2016-08-15T01:24:41.525Z,100
2016-08-15T01:24:54.129Z,100
2016-08-15T01:25:08.241Z,100
2016-08-15T01:25:23.103Z,100
2016-08-15T01:25:38.728Z,100
2016-08-15T01:25:52.841Z,100
2016-08-15T01:26:07.700Z,100
2016-08-15T01:26:21.080Z,100
2016-08-15T01:26:36.691Z,100
2016-08-15T01:26:50.871Z,100
2016-08-15T01:27:04.244Z,100
2016-08-15T01:27:18.375Z,100
2016-08-15T01:27:31.763Z,100
2016-08-15T01:27:45.880Z,100
2016-08-15T01:27:59.996Z,100
2016-08-15T01:28:12.604Z,100
2016-08-15T01:28:27.477Z,100
2016-08-15T01:28:40.896Z,100
2016-08-15T01:28:53.528Z,100
2016-08-15T01:29:06.955Z,100
2016-08-15T01:29:21.819Z,100
2016-08-15T01:29:35.187Z,100
2016-08-15T01:29:50.814Z,100
2016-08-15T01:30:06.431Z,100
2016-08-15T01:30:20.563Z,100
2016-08-15T01:30:33.175Z,100
2016-08-15T01:30:47.285Z,100
2016-08-15T01:31:00.658Z,100
2016-08-15T01:31:13.275Z,100
2016-08-15T01:31:28.138Z,100
2016-08-15T01:31:40.001Z,100
2016-08-15T01:31:50.373Z,100
2016-08-15T01:32:03.750Z,100
2016-08-15T01:32:16.361Z,100
2016-08-15T01:32:29.732Z,100
2016-08-15T01:32:43.839Z,100
2016-08-15T01:32:58.694Z,100
2016-08-15T01:33:11.312Z,100
2016-08-15T01:33:24.698Z,100
2016-08-15T01:33:37.312Z,100
2016-08-15T01:33:51.422Z,100
2016-08-15T01:34:04.823Z,100
2016-08-15T01:34:20.436Z,100
2016-08-15T01:34:31.572Z,100
2016-08-15T01:34:45.696Z,100
2016-08-15T01:34:56.076Z,100
2016-08-15T01:35:09.492Z,100
2016-08-15T01:35:24.352Z,100
2016-08-15T01:35:36.955Z,100
2016-08-15T01:35:49.551Z,100
2016-08-15T01:36:03.676Z,100
2016-08-15T01:36:14.792Z,100
2016-08-15T01:36:29.652Z,100
2016-08-15T01:36:43.112Z,100
2016-08-15T01:36:56.483Z,100
2016-08-15T01:37:09.860Z,100
2016-08-15T01:37:22.466Z,100
2016-08-15T01:37:36.573Z,100
2016-08-15T01:37:49.162Z,100
2016-08-15T01:38:02.523Z,100
2016-08-15T01:38:15.126Z,100
2016-08-15T01:38:29.251Z,100
2016-08-15T01:38:41.178Z,100
2016-08-15T01:38:56.058Z,100
2016-08-15T01:39:10.191Z,100
2016-08-15T01:39:23.540Z,100
2016-08-15T01:39:36.888Z,100
2016-08-15T01:39:48.766Z,100
2016-08-15T01:40:00.608Z,100
2016-08-15T01:40:13.984Z,100
2016-08-15T01:40:28.084Z,100
2016-08-15T01:40:42.201Z,100
2016-08-15T01:40:56.296Z,100
2016-08-15T01:41:09.639Z,100
2016-08-15T01:41:25.247Z,100
2016-08-15T01:41:38.595Z,100
2016-08-15T01:41:51.963Z,100
2016-08-15T01:42:05.327Z,100
2016-08-15T01:42:18.695Z,100
2016-08-15T01:42:29.063Z,100
2016-08-15T01:42:43.153Z,100
2016-08-15T01:42:55.783Z,100
2016-08-15T01:43:07.660Z,100
2016-08-15T01:43:21.764Z,100
2016-08-15T01:43:36.621Z,100
2016-08-15T01:43:48.480Z,100
2016-08-15T01:44:02.589Z,100
2016-08-15T01:44:17.471Z,100
2016-08-15T01:44:31.590Z,100
2016-08-15T01:44:44.186Z,100
2016-08-15T01:44:59.066Z,100
2016-08-15T01:45:11.678Z,100
2016-08-15T01:45:26.532Z,100
2016-08-15T01:45:39.162Z,100
2016-08-15T01:45:53.278Z,100
2016-08-15T01:46:05.888Z,100
2016-08-15T01:46:19.234Z,99.9
2016-08-15T01:46:34.086Z,100
2016-08-15T01:46:48.937Z,100
2016-08-15T01:47:03.028Z,100
2016-08-15T01:47:16.388Z,100
2016-08-15T01:47:31.996Z,100
2016-08-15T01:47:46.109Z,100
2016-08-15T01:48:01.755Z,100
2016-08-15T01:48:16.613Z,100
2016-08-15T01:48:30.710Z,100
2016-08-15T01:48:43.326Z,100
2016-08-15T01:48:56.704Z,100
2016-08-15T01:49:10.843Z,100
2016-08-15T01:49:26.452Z,100
2016-08-15T01:49:41.309Z,100
2016-08-15T01:49:53.162Z,100
2016-08-15T01:50:08.027Z,100
2016-08-15T01:50:22.907Z,100
2016-08-15T01:50:34.016Z,100
2016-08-15T01:50:48.149Z,99.8
2016-08-15T01:50:59.365Z,99.9
2016-08-15T01:51:12.000Z,100
2016-08-15T01:51:26.882Z,99.7
2016-08-15T01:51:40.986Z,99.6
2016-08-15T01:51:55.857Z,99.6
2016-08-15T01:52:09.210Z,98.9
2016-08-15T01:52:24.091Z,98.8
2016-08-15T01:52:37.458Z,99.1
2016-08-15T01:52:50.846Z,99.1
2016-08-15T01:53:04.983Z,98.7
2016-08-15T01:53:18.347Z,99.1
2016-08-15T01:53:31.705Z,98.7
2016-08-15T01:53:45.089Z,99.1
2016-08-15T01:53:56.967Z,98.8
2016-08-15T01:54:10.348Z,98.4
2016-08-15T01:54:22.947Z,98.6
2016-08-15T01:54:37.068Z,98.7
2016-08-15T01:54:51.932Z,98.2
2016-08-15T01:55:07.541Z,98.5
2016-08-15T01:55:20.158Z,98.7
2016-08-15T01:55:32.797Z,98.5
2016-08-15T01:55:45.412Z,98.8
2016-08-15T01:55:58.039Z,98.4
2016-08-15T01:56:12.168Z,98.5
2016-08-15T01:56:24.789Z,98.3
2016-08-15T01:56:35.919Z,98.3
2016-08-15T01:56:47.809Z,98
2016-08-15T01:57:01.197Z,98.1
2016-08-15T01:57:13.096Z,98.3
2016-08-15T01:57:26.454Z,98.3
2016-08-15T01:57:42.065Z,98.3
2016-08-15T01:57:55.454Z,98.1
2016-08-15T01:58:08.126Z,98.2
2016-08-15T01:58:21.505Z,97.9
2016-08-15T01:58:34.861Z,98
2016-08-15T01:58:50.486Z,98
2016-08-15T01:59:03.860Z,97.9
2016-08-15T01:59:18.734Z,98.1
2016-08-15T01:59:32.858Z,98
2016-08-15T01:59:46.973Z,97.7
2016-08-15T01:59:59.604Z,98.2
2016-08-15T02:00:12.970Z,97.8
2016-08-15T02:00:27.098Z,97.7
2016-08-15T02:00:40.458Z,97.8
2016-08-15T02:00:54.649Z,97.9
2016-08-15T02:01:10.254Z,97.9
2016-08-15T02:01:22.886Z,97.7
2016-08-15T02:01:36.255Z,98.1
2016-08-15T02:01:49.633Z,98
2016-08-15T02:02:02.232Z,97.9
2016-08-15T02:02:13.356Z,98
2016-08-15T02:02:27.492Z,98.1
2016-08-15T02:02:40.865Z,98
2016-08-15T02:02:52.740Z,97.9
2016-08-15T02:03:06.107Z,98.1
2016-08-15T02:03:18.718Z,98.3
2016-08-15T02:03:30.589Z,98
2016-08-15T02:03:43.218Z,98.8
2016-08-15T02:03:57.338Z,98.6
2016-08-15T02:04:12.200Z,98.5
2016-08-15T02:04:27.818Z,98.6
2016-08-15T02:04:41.938Z,98.4
2016-08-15T02:04:56.789Z,98.3
2016-08-15T02:05:10.178Z,97.9
2016-08-15T02:05:23.540Z,97.4
2016-08-15T02:05:37.107Z,97.6
2016-08-15T02:05:51.215Z,98.2
2016-08-15T02:06:05.380Z,97.9
2016-08-15T02:06:20.266Z,98.1
2016-08-15T02:06:35.150Z,98.5
2016-08-15T02:06:50.071Z,98.2
2016-08-15T02:07:02.679Z,98.4
2016-08-15T02:07:15.283Z,98.8
2016-08-15T02:07:27.902Z,98.5
2016-08-15T02:07:40.509Z,98.5
2016-08-15T02:07:53.153Z,98.3
2016-08-15T02:08:07.259Z,98.2
2016-08-15T02:08:19.140Z,98
2016-08-15T02:08:32.529Z,97.8
2016-08-15T02:08:46.645Z,98
2016-08-15T02:09:00.034Z,98
2016-08-15T02:09:14.162Z,98.1
2016-08-15T02:09:26.794Z,98.5
2016-08-15T02:09:40.931Z,98.3
2016-08-15T02:09:56.559Z,98.9
2016-08-15T02:10:10.707Z,98.7
2016-08-15T02:10:22.562Z,98.8
2016-08-15T02:10:35.972Z,98.6
2016-08-15T02:10:47.836Z,98.4
2016-08-15T02:10:58.947Z,98.4
2016-08-15T02:11:12.312Z,98.3
2016-08-15T02:11:25.729Z,98.1
2016-08-15T02:11:40.056Z,98.4
2016-08-15T02:11:52.648Z,98.3
2016-08-15T02:12:04.514Z,98.1
2016-08-15T02:12:18.642Z,98.2
2016-08-15T02:12:33.521Z,98.3
2016-08-15T02:12:46.142Z,98.8
2016-08-15T02:13:01.006Z,98.4
2016-08-15T02:13:14.362Z,98.5
2016-08-15T02:13:27.707Z,98.8
2016-08-15T02:13:43.323Z,98.6
2016-08-15T02:13:58.946Z,98.9
2016-08-15T02:14:12.300Z,99
2016-08-15T02:14:25.665Z,99.1
2016-08-15T02:14:40.534Z,99.1
2016-08-15T02:14:53.163Z,99
2016-08-15T02:15:08.030Z,99.1
2016-08-15T02:15:21.409Z,99.3
2016-08-15T02:15:36.281Z,99.2
2016-08-15T02:15:50.390Z,98.9
2016-08-15T02:16:03.017Z,98.4
2016-08-15T02:16:17.881Z,98.9
2016-08-15T02:16:31.234Z,98.7
2016-08-15T02:16:46.106Z,99
2016-08-15T02:16:58.736Z,99
2016-08-15T02:17:10.589Z,99.4
2016-08-15T02:17:24.705Z,99.1
2016-08-15T02:17:39.579Z,99
2016-08-15T02:17:52.933Z,99
2016-08-15T02:18:06.313Z,99
2016-08-15T02:18:19.671Z,99
2016-08-15T02:18:30.780Z,99
2016-08-15T02:18:44.169Z,99.1
2016-08-15T02:18:57.538Z,99.1
2016-08-15T02:19:12.407Z,99
2016-08-15T02:19:25.797Z,99.1
2016-08-15T02:19:39.175Z,99.1
2016-08-15T02:19:51.865Z,99
2016-08-15T02:20:04.493Z,99.1
2016-08-15T02:20:19.365Z,99.7
2016-08-15T02:20:32.009Z,99.5
2016-08-15T02:20:45.380Z,99.4
2016-08-15T02:21:00.291Z,99.6
2016-08-15T02:21:14.427Z,99.9
2016-08-15T02:21:27.062Z,99.6
2016-08-15T02:21:38.916Z,99.9
2016-08-15T02:21:53.038Z,99.8
2016-08-15T02:22:07.903Z,99.2
2016-08-15T02:22:21.256Z,99.6
2016-08-15T02:22:35.370Z,100
2016-08-15T02:22:49.491Z,99.8
2016-08-15T02:23:04.349Z,99.6
2016-08-15T02:23:19.222Z,99.4
2016-08-15T02:23:32.570Z,99.6
2016-08-15T02:23:45.945Z,99.6
2016-08-15T02:24:00.088Z,99.5
2016-08-15T02:24:14.203Z,99.4
2016-08-15T02:24:29.820Z,98.8
2016-08-15T02:24:43.188Z,99.8
2016-08-15T02:24:56.566Z,99.5
2016-08-15T02:25:11.440Z,99.7
2016-08-15T02:25:24.041Z,99.8
2016-08-15T02:25:35.891Z,99.4
2016-08-15T02:25:50.015Z,99.5
2016-08-15T02:26:04.144Z,99.7
2016-08-15T02:26:17.511Z,99.6
2016-08-15T02:26:30.908Z,99.3
2016-08-15T02:26:42.061Z,98.8
2016-08-15T02:26:56.918Z,99
2016-08-15T02:27:10.392Z,98.9
2016-08-15T02:27:24.510Z,99
2016-08-15T02:27:38.618Z,99.1
2016-08-15T02:27:53.495Z,99.2
2016-08-15T02:28:07.641Z,98.9
2016-08-15T02:28:21.754Z,98.8
2016-08-15T02:28:35.885Z,98.6
2016-08-15T02:28:48.510Z,98.4
2016-08-15T02:29:01.904Z,98.4
2016-08-15T02:29:14.530Z,98.6
2016-08-15T02:29:28.655Z,98.4
2016-08-15T02:29:42.042Z,98.5
2016-08-15T02:29:55.397Z,98.5
2016-08-15T02:30:08.752Z,98.7
2016-08-15T02:30:21.362Z,98.2
2016-08-15T02:30:35.482Z,98.8
2016-08-15T02:30:48.100Z,98.3
2016-08-15T02:31:01.481Z,98.2
2016-08-15T02:31:14.857Z,98.4
2016-08-15T02:31:26.704Z,98.8
2016-08-15T02:31:41.566Z,98.3
2016-08-15T02:31:55.413Z,98.5
2016-08-15T02:32:08.778Z,98.3
2016-08-15T02:32:22.900Z,98.7
2016-08-15T02:32:36.268Z,98.5
2016-08-15T02:32:49.636Z,98.6
2016-08-15T02:33:02.985Z,98.9
2016-08-15T02:33:16.373Z,98.1
2016-08-15T02:33:28.268Z,98
2016-08-15T02:33:40.161Z,97.9
2016-08-15T02:33:52.773Z,98.1
2016-08-15T02:34:07.645Z,97.6
2016-08-15T02:34:22.512Z,97.6
2016-08-15T02:34:34.396Z,98.1
2016-08-15T02:34:49.270Z,97.6
2016-08-15T02:35:02.641Z,97.6
2016-08-15T02:35:16.001Z,97.8
2016-08-15T02:35:30.219Z,97.8
2016-08-15T02:35:43.592Z,98
2016-08-15T02:35:56.970Z,97.5
2016-08-15T02:36:12.580Z,97.6
2016-08-15T02:36:26.736Z,98.3
2016-08-15T02:36:40.846Z,98
2016-08-15T02:36:54.208Z,98.4
2016-08-15T02:37:06.069Z,98.3
2016-08-15T02:37:20.208Z,99
2016-08-15T02:37:32.832Z,98.6
2016-08-15T02:37:45.451Z,98.7
2016-08-15T02:37:58.812Z,98.4
2016-08-15T02:38:11.419Z,98.7
2016-08-15T02:38:24.030Z,98.6
2016-08-15T02:38:37.394Z,98.7
2016-08-15T02:38:52.259Z,98.6
2016-08-15T02:39:05.623Z,98.9
2016-08-15T02:39:18.980Z,98.7
2016-08-15T02:39:31.604Z,98.3
2016-08-15T02:39:44.988Z,98.7
2016-08-15T02:39:57.626Z,98.4
2016-08-15T02:40:10.265Z,98.4
2016-08-15T02:40:24.371Z,98.5
2016-08-15T02:40:39.236Z,98.7
2016-08-15T02:40:53.354Z,98.9
2016-08-15T02:41:07.515Z,98.9
2016-08-15T02:41:20.887Z,98.9
2016-08-15T02:41:34.251Z,99.1
2016-08-15T02:41:47.616Z,99
2016-08-15T02:42:00.965Z,98.7
2016-08-15T02:42:13.587Z,98.8
2016-08-15T02:42:26.958Z,98.8
2016-08-15T02:42:38.080Z,98.4
2016-08-15T02:42:52.995Z,98.7
2016-08-15T02:43:07.889Z,98.4
2016-08-15T02:43:21.996Z,99.1
2016-08-15T02:43:36.189Z,98.9
2016-08-15T02:43:48.868Z,98.9
2016-08-15T02:44:02.248Z,98.8
2016-08-15T02:44:16.436Z,98.8
2016-08-15T02:44:29.045Z,99.6
2016-08-15T02:44:42.427Z,99.7
2016-08-15T02:44:56.568Z,99.6
2016-08-15T02:45:10.694Z,99
2016-08-15T02:45:24.113Z,98.8
2016-08-15T02:45:39.736Z,99.7
2016-08-15T02:45:55.418Z,98.9
2016-08-15T02:46:08.043Z,99
2016-08-15T02:46:21.434Z,99.1
2016-08-15T02:46:34.819Z,99
2016-08-15T02:46:49.685Z,98.9
2016-08-15T02:47:03.793Z,99.6
2016-08-15T02:47:17.892Z,99.5
2016-08-15T02:47:30.495Z,99.4
2016-08-15T02:47:42.352Z,99.6
2016-08-15T02:47:54.218Z,100
2016-08-15T02:48:07.578Z,100
2016-08-15T02:48:19.435Z,100
2016-08-15T02:48:33.554Z,100
2016-08-15T02:48:46.176Z,100
2016-08-15T02:49:00.335Z,100
2016-08-15T02:49:12.973Z,100
2016-08-15T02:49:26.323Z,100
2016-08-15T02:49:39.691Z,100
2016-08-15T02:49:53.832Z,100
2016-08-15T02:50:08.682Z,100
2016-08-15T02:50:20.557Z,100
2016-08-15T02:50:33.925Z,100
2016-08-15T02:50:46.584Z,100
2016-08-15T02:51:00.705Z,100
2016-08-15T02:51:14.816Z,100
2016-08-15T02:51:28.929Z,100
2016-08-15T02:51:43.032Z,100
2016-08-15T02:51:57.136Z,100
2016-08-15T02:52:12.055Z,100
2016-08-15T02:52:24.701Z,100
2016-08-15T02:52:36.607Z,100
2016-08-15T02:52:49.208Z,100
2016-08-15T02:53:04.122Z,100
2016-08-15T02:53:18.235Z,99.8
2016-08-15T02:53:30.861Z,100
2016-08-15T02:53:41.211Z,99.4
2016-08-15T02:53:55.334Z,99.6
2016-08-15T02:54:10.194Z,99.7
2016-08-15T02:54:22.066Z,99.6
2016-08-15T02:54:34.795Z,100
2016-08-15T02:54:49.029Z,100
2016-08-15T02:55:00.156Z,100
2016-08-15T02:55:12.878Z,100
2016-08-15T02:55:25.509Z,100
2016-08-15T02:55:38.126Z,100
2016-08-15T02:55:50.827Z,100
2016-08-15T02:56:04.949Z,100
2016-08-15T02:56:17.587Z,100
2016-08-15T02:56:30.948Z,100
2016-08-15T02:56:45.067Z,100
2016-08-15T02:56:59.175Z,100
2016-08-15T02:57:11.056Z,100
2016-08-15T02:57:25.932Z,100
2016-08-15T02:57:39.317Z,100
2016-08-15T02:57:52.697Z,100
2016-08-15T02:58:06.056Z,100
2016-08-15T02:58:19.422Z,100
2016-08-15T02:58:29.797Z,99.6
2016-08-15T02:58:41.651Z,99.5
2016-08-15T02:58:55.035Z,100
2016-08-15T02:59:07.669Z,99.8
2016-08-15T02:59:21.033Z,100
2016-08-15T02:59:33.660Z,100
2016-08-15T02:59:45.527Z,100
2016-08-15T02:59:58.889Z,100
2016-08-15T03:00:13.103Z,100
2016-08-15T03:00:26.481Z,100
2016-08-15T03:00:41.402Z,100
2016-08-15T03:00:54.762Z,100
2016-08-15T03:01:09.659Z,100
2016-08-15T03:01:23.778Z,100
2016-08-15T03:01:38.639Z,100
2016-08-15T03:01:52.753Z,100
2016-08-15T03:02:03.870Z,100
2016-08-15T03:02:17.227Z,100
2016-08-15T03:02:30.615Z,100
2016-08-15T03:02:44.746Z,100
2016-08-15T03:02:57.371Z,100
2016-08-15T03:03:10.005Z,100
2016-08-15T03:03:24.132Z,100
2016-08-15T03:03:39.006Z,100
2016-08-15T03:03:52.380Z,100
2016-08-15T03:04:07.249Z,100
2016-08-15T03:04:20.617Z,100
2016-08-15T03:04:33.212Z,100
2016-08-15T03:04:46.582Z,100
2016-08-15T03:05:01.454Z,100
2016-08-15T03:05:14.077Z,100